Terminal Aerodrome Forecast
Issued by NWS

Current Version | Previous Version | Text Only | Print | Product List | Glossary Off
Versions: 1 2 3 4 5 6 7 8 9 10 11 12 13 14 15 16 17 18 19 20 21 22 23 24

161
FTUS41 KPBZ 100721 AAA
TAFMGW
TAF AMD
KMGW 100721Z 1007/1106 22007KT P6SM OVC019
     FM101800 24007KT 3SM -SHSN OVC012
     FM110000 26010KT 1SM -SHSN OVC010=

USA.gov is the U.S. government's official web portal to all federal, state and local government web resources and services.